Cortes Canales — EA6849 — position and weather

sailwx.info

Track history (hours):
 
Tides and Currents Weather Stations Pressure Air Temp Water Temp Dewpoint Dewpoint Depression Visibility Wind Speed Wind Dir Waves Ship Positions

Cortes Canales

Last reported at 2018-Feb-23 17:28 UTC. Time now 2018-Feb-24 08:37 UTC.
Position N 36°58' W 008°27'.

Length 19 m.

Type: Fishing. MMSI: 224004660.

Date/timePositionNaut miles runAvg speedWind from/ knotsBaromVisibWave heightAir tempDewpointWater temp
2018-Feb-23 17:28N 36°58' W 008°27'0 0.7
2018-Feb-23 16:51N 36°57' W 008°27'1 2.9
2018-Feb-23 16:28N 36°57' W 008°28'9 2.7
2018-Feb-23 13:10N 36°54' W 008°39'1 1.5
2018-Feb-23 12:49N 36°54' W 008°39'5 1.6
2018-Feb-23 09:35N 36°57' W 008°45'0 3.4
2018-Feb-23 09:28N 36°57' W 008°45'1 2.7
2018-Feb-23 08:58N 36°58' W 008°43'1 2.0
2018-Feb-23 08:30N 36°58' W 008°44'2 2.8
2018-Feb-23 07:53N 36°58' W 008°46'1 2.9
2018-Feb-23 07:30N 36°57' W 008°47'2 2.9
2018-Feb-23 06:53N 36°57' W 008°49'1 2.9
2018-Feb-23 06:29N 36°56' W 008°50'1 2.7
2018-Feb-23 05:59N 36°55' W 008°52'5 2.9
2018-Feb-23 04:19N 36°57' W 008°46'1 3.2
2018-Feb-23 03:57N 36°56' W 008°47'1 1.5
2018-Feb-23 03:30N 36°55' W 008°46'2 3.1
2018-Feb-23 02:59N 36°55' W 008°45'1 2.9
2018-Feb-23 02:30N 36°54' W 008°43'2 3.1
2018-Feb-23 02:00N 36°54' W 008°41'2 3.1
2018-Feb-23 01:30N 36°54' W 008°39'2 3.1
2018-Feb-23 00:59N 36°54' W 008°37'1 3.1
2018-Feb-23 00:30N 36°53' W 008°35'6 4.5
2018-Feb-22 23:07N 36°55' W 008°28'1 9.4
2018-Feb-22 23:00N 36°56' W 008°27'5 9.3
2018-Feb-22 22:30N 36°56' W 008°21'5 9.0
2018-Feb-22 22:00N 36°56' W 008°15'4 8.9
2018-Feb-22 21:30N 36°55' W 008°10'  
Track history (hours):
 
Tides and Currents Weather Stations Pressure Air Temp Water Temp Dewpoint Dewpoint Depression Visibility Wind Speed Wind Dir Waves Ship Positions

Cortes Canales

Last reported at 2018-Feb-23 17:28 UTC. Time now 2018-Feb-24 08:37 UTC.
Position N 36°58' W 008°27'.

Length 19 m.

Type: Fishing. MMSI: 224004660.

Date/timePositionNaut miles runAvg speedWind from/ knotsBaromVisibWave heightAir tempDewpointWater temp
2018-Feb-23 17:28N 36°58' W 008°27'0 0.7
2018-Feb-23 16:51N 36°57' W 008°27'1 2.9
2018-Feb-23 16:28N 36°57' W 008°28'9 2.7
2018-Feb-23 13:10N 36°54' W 008°39'1 1.5
2018-Feb-23 12:49N 36°54' W 008°39'5 1.6
2018-Feb-23 09:35N 36°57' W 008°45'0 3.4
2018-Feb-23 09:28N 36°57' W 008°45'1 2.7
2018-Feb-23 08:58N 36°58' W 008°43'1 2.0
2018-Feb-23 08:30N 36°58' W 008°44'2 2.8
2018-Feb-23 07:53N 36°58' W 008°46'1 2.9
2018-Feb-23 07:30N 36°57' W 008°47'2 2.9
2018-Feb-23 06:53N 36°57' W 008°49'1 2.9
2018-Feb-23 06:29N 36°56' W 008°50'1 2.7
2018-Feb-23 05:59N 36°55' W 008°52'5 2.9
2018-Feb-23 04:19N 36°57' W 008°46'1 3.2
2018-Feb-23 03:57N 36°56' W 008°47'1 1.5
2018-Feb-23 03:30N 36°55' W 008°46'2 3.1
2018-Feb-23 02:59N 36°55' W 008°45'1 2.9
2018-Feb-23 02:30N 36°54' W 008°43'2 3.1
2018-Feb-23 02:00N 36°54' W 008°41'2 3.1
2018-Feb-23 01:30N 36°54' W 008°39'2 3.1
2018-Feb-23 00:59N 36°54' W 008°37'1 3.1
2018-Feb-23 00:30N 36°53' W 008°35'6 4.5
2018-Feb-22 23:07N 36°55' W 008°28'1 9.4
2018-Feb-22 23:00N 36°56' W 008°27'5 9.3
2018-Feb-22 22:30N 36°56' W 008°21'5 9.0
2018-Feb-22 22:00N 36°56' W 008°15'4 8.9
2018-Feb-22 21:30N 36°55' W 008°10'  

Dump ship's entire track history